Time;durP1;ratioP1;P1;durP2;ratioP2;P2;SDS_P1;SDS_P2;PMS_P1;PMS_P2;Temp;Humidity;BMP_temperature;BMP_pressure;BME280_temperature;BME280_humidity;BME280_pressure;Samples;Min_cycle;Max_cycle;Signal;HPM_P1;HPM_P2
2023/05/22 00:01:06;;;;;;;8.82;5.43;;;19.80;59.50;;;;;;6265898;28;20048;-74
2023/05/22 00:04:20;;;;;;;10.75;5.80;;;19.70;59.60;;;;;;6265979;28;20029;-73
2023/05/22 00:07:27;;;;;;;7.57;5.25;;;19.60;59.80;;;;;;6265505;28;20033;-75
2023/05/22 00:10:35;;;;;;;8.98;5.53;;;19.60;60.10;;;;;;6270556;28;20059;-72
2023/05/22 00:13:45;;;;;;;8.25;5.75;;;19.60;60.20;;;;;;6290648;28;20035;-74
2023/05/22 00:16:55;;;;;;;9.90;5.82;;;19.50;60.10;;;;;;6266839;28;20063;-74
2023/05/22 00:20:09;;;;;;;8.80;5.95;;;19.50;60.20;;;;;;6265888;28;20036;-73
2023/05/22 00:23:18;;;;;;;10.40;5.63;;;19.40;60.40;;;;;;6266404;28;20454;-75
2023/05/22 00:26:25;;;;;;;12.40;6.50;;;19.40;60.50;;;;;;6265445;28;20037;-74
2023/05/22 00:29:33;;;;;;;16.37;7.00;;;19.20;60.40;;;;;;6265622;28;20036;-73
2023/05/22 00:32:46;;;;;;;14.35;6.03;;;19.40;60.60;;;;;;6265596;28;20082;-75
2023/05/22 00:35:57;;;;;;;10.95;6.05;;;19.30;60.70;;;;;;6281017;28;20055;-73
2023/05/22 00:39:08;;;;;;;10.88;6.35;;;19.20;60.80;;;;;;6265138;28;20025;-76
2023/05/22 00:42:19;;;;;;;12.07;6.57;;;19.20;60.90;;;;;;6282091;28;20136;-73
2023/05/22 00:45:28;;;;;;;9.85;5.45;;;19.20;61.00;;;;;;6288746;28;20033;-74
2023/05/22 00:48:35;;;;;;;11.07;7.18;;;19.20;61.00;;;;;;6292020;28;20495;-73
2023/05/22 00:51:46;;;;;;;10.43;5.90;;;19.20;61.00;;;;;;6297918;28;20021;-74
2023/05/22 00:54:54;;;;;;;13.20;6.53;;;19.20;61.10;;;;;;6297262;28;20060;-72
2023/05/22 00:58:08;;;;;;;9.77;6.25;;;19.30;61.30;;;;;;6297349;28;20040;-76
2023/05/22 01:01:16;;;;;;;11.88;5.47;;;19.30;61.30;;;;;;6295006;28;20136;-72
2023/05/22 01:04:24;;;;;;;8.15;5.13;;;19.30;61.30;;;;;;6295475;28;20065;-75
2023/05/22 01:07:36;;;;;;;12.90;5.47;;;19.30;61.40;;;;;;6294683;28;20060;-77
2023/05/22 01:10:48;;;;;;;14.82;6.22;;;19.30;61.40;;;;;;6294709;28;20024;-75
2023/05/22 01:13:54;;;;;;;9.88;5.95;;;19.20;61.40;;;;;;6294788;28;20449;-75
2023/05/22 01:17:22;;;;;;;7.78;5.40;;;19.30;61.50;;;;;;6294846;28;20032;-75
2023/05/22 01:20:48;;;;;;;10.65;6.35;;;19.30;61.60;;;;;;6294424;28;20032;-75
2023/05/22 01:23:58;;;;;;;9.15;5.95;;;19.40;61.60;;;;;;6294962;28;20528;-76
2023/05/22 01:27:41;;;;;;;8.60;5.35;;;19.30;61.30;;;;;;6292608;28;20063;-75
2023/05/22 01:31:00;;;;;;;11.07;5.72;;;19.40;61.50;;;;;;6293958;28;20032;-73
2023/05/22 01:34:14;;;;;;;10.80;5.53;;;19.40;61.50;;;;;;6294023;28;20099;-75
2023/05/22 01:37:23;;;;;;;11.65;5.95;;;19.40;61.60;;;;;;6294721;28;20052;-74
2023/05/22 01:40:31;;;;;;;8.32;5.43;;;19.50;61.80;;;;;;6293894;28;20077;-73
2023/05/22 01:43:40;;;;;;;9.35;5.88;;;19.30;61.90;;;;;;6292841;28;20036;-77
2023/05/22 01:46:47;;;;;;;10.00;5.50;;;19.30;62.00;;;;;;6293714;28;20029;-76
2023/05/22 01:49:54;;;;;;;8.85;5.55;;;19.30;62.20;;;;;;6292344;28;20097;-72
2023/05/22 01:53:18;;;;;;;12.60;5.68;;;19.30;62.30;;;;;;6292544;28;20510;-74
2023/05/22 01:56:33;;;;;;;8.65;5.93;;;19.20;62.60;;;;;;6293573;28;20036;-74
2023/05/22 02:00:10;;;;;;;7.90;5.18;;;19.20;62.60;;;;;;6293055;28;20039;-74
2023/05/22 02:03:30;;;;;;;18.80;5.75;;;19.10;62.70;;;;;;6293702;28;20231;-76
2023/05/22 02:06:40;;;;;;;8.30;5.60;;;19.10;62.90;;;;;;6292335;28;20028;-74
2023/05/22 02:09:52;;;;;;;10.75;5.40;;;19.10;63.00;;;;;;6267416;28;20031;-74
2023/05/22 02:12:59;;;;;;;9.52;5.63;;;19.10;63.00;;;;;;6268310;28;20021;-75
2023/05/22 02:16:08;;;;;;;10.80;6.10;;;19.00;63.10;;;;;;6267376;28;20044;-76
2023/05/22 02:19:21;;;;;;;11.18;5.95;;;19.00;63.30;;;;;;6268430;28;20025;-73
2023/05/22 02:22:28;;;;;;;8.05;5.50;;;18.90;63.40;;;;;;6268678;28;20121;-74
2023/05/22 02:25:32;;;;;;;7.65;4.95;;;18.90;63.50;;;;;;6267169;28;20075;-72
2023/05/22 02:28:44;;;;;;;9.50;5.60;;;18.90;63.50;;;;;;6266445;28;20052;-75
2023/05/22 02:31:57;;;;;;;14.93;5.75;;;18.90;63.60;;;;;;6266753;28;20028;-73
2023/05/22 02:35:05;;;;;;;9.18;5.95;;;18.80;63.70;;;;;;6266389;28;20075;-73
2023/05/22 02:38:20;;;;;;;8.82;5.43;;;18.80;63.80;;;;;;6266070;28;20116;-73
2023/05/22 02:41:28;;;;;;;10.40;5.53;;;18.80;63.80;;;;;;6267451;28;20032;-74
2023/05/22 02:44:42;;;;;;;8.98;6.10;;;18.80;64.00;;;;;;6268019;28;20028;-74
2023/05/22 02:47:49;;;;;;;13.07;6.47;;;18.80;64.10;;;;;;6267757;28;20362;-74
2023/05/22 02:51:00;;;;;;;8.80;5.15;;;18.70;64.20;;;;;;6267865;28;20044;-74
2023/05/22 02:54:02;;;;;;;;;;;18.70;64.30;;;;;;6267898;28;20123;-72
2023/05/22 02:57:11;;;;;;;8.48;5.13;;;18.60;64.30;;;;;;6267019;28;19908;-75
2023/05/22 03:00:25;;;;;;;9.15;5.45;;;18.50;64.30;;;;;;6280652;28;20036;-74
2023/05/22 03:03:30;;;;;;;13.93;5.68;;;18.60;64.70;;;;;;6284278;28;20037;-75
2023/05/22 03:06:35;;;;;;;7.30;5.03;;;18.50;64.90;;;;;;6267203;28;20086;-73
2023/05/22 03:09:45;;;;;;;8.98;5.70;;;18.40;65.00;;;;;;6266167;28;20142;-75
2023/05/22 03:12:54;;;;;;;11.90;5.63;;;18.40;65.10;;;;;;6282080;28;20033;-73
2023/05/22 03:16:04;;;;;;;14.40;6.22;;;18.40;65.40;;;;;;6267247;28;20068;-74
2023/05/22 03:19:20;;;;;;;9.55;5.90;;;18.30;65.50;;;;;;6265606;28;20029;-74
2023/05/22 03:22:28;;;;;;;11.15;5.50;;;18.30;65.60;;;;;;6267131;28;20091;-74
2023/05/22 03:25:35;;;;;;;9.83;6.30;;;18.30;66.50;;;;;;6282195;28;20036;-73
2023/05/22 03:28:45;;;;;;;9.63;5.75;;;18.30;65.70;;;;;;6266564;28;20112;-75
2023/05/22 03:31:58;;;;;;;10.10;6.15;;;18.30;65.80;;;;;;6282169;28;20039;-73
2023/05/22 03:35:06;;;;;;;9.35;5.88;;;18.20;65.80;;;;;;6266983;28;20036;-75
2023/05/22 03:38:17;;;;;;;7.90;5.32;;;18.20;65.90;;;;;;6265399;28;20029;-73
2023/05/22 03:41:28;;;;;;;10.00;5.55;;;18.10;66.00;;;;;;6266474;28;20067;-73
2023/05/22 03:44:34;;;;;;;9.80;5.72;;;18.20;66.10;;;;;;6267104;28;20104;-73
2023/05/22 03:47:44;;;;;;;10.32;5.53;;;18.10;66.00;;;;;;6266088;28;20035;-74
2023/05/22 03:50:54;;;;;;;11.45;5.93;;;18.10;66.10;;;;;;6266789;28;20074;-74
2023/05/22 03:54:05;;;;;;;10.68;5.60;;;18.10;66.20;;;;;;6266879;28;20115;-75
2023/05/22 03:57:13;;;;;;;9.65;4.93;;;18.00;66.30;;;;;;6289407;28;20036;-73
2023/05/22 04:00:24;;;;;;;11.20;5.15;;;18.00;66.50;;;;;;6279831;28;20495;-74
2023/05/22 04:03:33;;;;;;;9.63;5.80;;;17.90;66.70;;;;;;6266459;28;20178;-75
2023/05/22 04:06:42;;;;;;;11.88;5.95;;;17.90;66.90;;;;;;6267409;28;20056;-75
2023/05/22 04:09:54;;;;;;;9.63;6.10;;;17.90;66.90;;;;;;6273118;28;20090;-75
2023/05/22 04:13:02;;;;;;;10.00;5.95;;;17.90;66.80;;;;;;6276229;28;20021;-74
2023/05/22 04:16:16;;;;;;;13.57;6.07;;;17.90;66.70;;;;;;6270047;28;20037;-75
2023/05/22 04:19:26;;;;;;;13.52;6.00;;;17.90;66.70;;;;;;6264564;28;20075;-76
2023/05/22 04:22:34;;;;;;;11.13;5.68;;;17.90;66.80;;;;;;6265542;28;20104;-74
2023/05/22 04:25:43;;;;;;;16.08;6.03;;;17.90;66.90;;;;;;6264495;28;20048;-75
2023/05/22 04:28:50;;;;;;;10.10;6.40;;;17.90;66.80;;;;;;6265145;28;20078;-74
2023/05/22 04:32:02;;;;;;;13.43;5.45;;;17.90;66.80;;;;;;6264423;28;20021;-74
2023/05/22 04:35:11;;;;;;;9.52;5.78;;;17.90;66.70;;;;;;6264331;28;20144;-75
2023/05/22 04:38:25;;;;;;;9.52;6.22;;;18.00;66.70;;;;;;6264095;28;20688;-73
2023/05/22 04:41:31;;;;;;;10.40;6.18;;;18.00;66.70;;;;;;6280644;28;20109;-76
2023/05/22 04:44:37;;;;;;;13.20;6.10;;;18.00;66.70;;;;;;6280962;28;20031;-73
2023/05/22 04:47:43;;;;;;;12.02;6.60;;;17.90;66.70;;;;;;6263893;28;20037;-75
2023/05/22 04:50:53;;;;;;;12.02;6.45;;;17.90;66.80;;;;;;6265449;28;20033;-76
2023/05/22 04:54:03;;;;;;;11.30;6.28;;;18.00;66.80;;;;;;6287332;28;20788;-73
2023/05/22 04:57:10;;;;;;;9.15;5.53;;;17.90;66.80;;;;;;6288487;28;20024;-74
2023/05/22 05:00:18;;;;;;;10.65;6.40;;;17.90;66.90;;;;;;6290195;28;20033;-76
2023/05/22 05:03:25;;;;;;;8.95;6.00;;;17.90;67.00;;;;;;6290283;28;20037;-75
2023/05/22 05:06:31;;;;;;;12.20;6.50;;;17.90;67.10;;;;;;6288793;28;20134;-74
2023/05/22 05:09:41;;;;;;;13.45;5.60;;;17.90;67.10;;;;;;6288586;28;20021;-77
2023/05/22 05:12:46;;;;;;;11.55;6.05;;;18.00;67.20;;;;;;6290233;28;20024;-74
2023/05/22 05:15:52;;;;;;;8.68;5.95;;;18.00;67.20;;;;;;6290995;28;20492;-74
2023/05/22 05:19:04;;;;;;;10.32;6.30;;;18.00;67.10;;;;;;6290504;28;20029;-74
2023/05/22 05:22:10;;;;;;;13.93;6.38;;;18.10;67.10;;;;;;6290405;28;20051;-72
2023/05/22 05:25:15;;;;;;;14.98;6.32;;;18.10;67.00;;;;;;6290780;28;20148;-76
2023/05/22 05:28:22;;;;;;;13.00;5.88;;;18.10;66.80;;;;;;6292658;28;20074;-74
2023/05/22 05:31:29;;;;;;;10.80;6.38;;;18.10;66.80;;;;;;6290732;28;20119;-75
2023/05/22 05:34:55;;;;;;;14.27;6.80;;;18.20;66.90;;;;;;6293523;28;20032;-74
2023/05/22 05:38:17;;;;;;;12.23;6.28;;;18.20;66.90;;;;;;6297057;28;20464;-75
2023/05/22 05:41:25;;;;;;;12.50;6.27;;;18.20;66.80;;;;;;6295738;28;20024;-73
2023/05/22 05:44:41;;;;;;;12.23;6.07;;;18.30;66.70;;;;;;6278207;28;20033;-74
2023/05/22 05:47:50;;;;;;;11.88;6.60;;;18.30;66.50;;;;;;6292770;28;20041;-77
2023/05/22 05:50:59;;;;;;;15.00;5.95;;;18.40;66.40;;;;;;6294739;28;20036;-76
2023/05/22 05:54:14;;;;;;;10.77;6.05;;;18.50;66.30;;;;;;6269897;28;20406;-74
2023/05/22 05:57:22;;;;;;;14.07;7.18;;;18.60;66.20;;;;;;6269259;28;20116;-74
2023/05/22 06:00:31;;;;;;;21.75;6.53;;;18.70;66.00;;;;;;6267543;28;20033;-73
2023/05/22 06:03:41;;;;;;;11.88;6.70;;;18.80;65.80;;;;;;6267254;28;20032;-77
2023/05/22 06:06:48;;;;;;;15.57;5.85;;;18.70;65.40;;;;;;6268387;28;20043;-74
2023/05/22 06:10:08;;;;;;;8.55;5.55;;;18.90;65.10;;;;;;6269803;28;20025;-74
2023/05/22 06:13:31;;;;;;;9.35;6.13;;;19.00;65.00;;;;;;6269900;28;20033;-74
2023/05/22 06:16:42;;;;;;;8.77;5.85;;;19.00;64.90;;;;;;6267526;28;20065;-76
2023/05/22 06:19:48;;;;;;;28.70;6.53;;;19.20;64.90;;;;;;6285548;28;20372;-74
2023/05/22 06:22:57;;;;;;;15.65;6.38;;;19.30;64.60;;;;;;6293161;28;20025;-73
2023/05/22 06:26:05;;;;;;;21.83;6.97;;;19.30;64.20;;;;;;6290739;28;20047;-73
2023/05/22 06:29:16;;;;;;;11.38;6.40;;;19.50;64.20;;;;;;6292627;28;20484;-75
2023/05/22 06:32:21;;;;;;;8.52;6.13;;;19.60;63.80;;;;;;6291779;28;20048;-74
2023/05/22 06:35:31;;;;;;;12.32;6.63;;;19.60;63.50;;;;;;6292915;28;20389;-73
2023/05/22 06:38:42;;;;;;;16.73;6.68;;;19.70;63.20;;;;;;6290846;28;20075;-74
2023/05/22 06:42:09;;;;;;;12.07;5.53;;;19.80;63.20;;;;;;6290540;28;20032;-75
2023/05/22 06:45:36;;;;;;;8.40;5.32;;;19.90;62.90;;;;;;6292367;28;20445;-75
2023/05/22 06:49:06;;;;;;;14.05;6.35;;;20.00;62.40;;;;;;6292099;28;20025;-76
2023/05/22 06:52:21;;;;;;;16.05;5.97;;;20.20;62.00;;;;;;6290652;28;20171;-74
2023/05/22 06:55:25;;;;;;;9.05;5.80;;;20.30;61.60;;;;;;6286188;28;20086;-75
2023/05/22 06:58:45;;;;;;;10.50;5.63;;;20.40;61.30;;;;;;6265758;28;20121;-75
2023/05/22 07:01:50;;;;;;;8.10;5.55;;;20.60;60.60;;;;;;6267117;28;20025;-76
2023/05/22 07:05:08;;;;;;;9.23;5.30;;;20.90;59.90;;;;;;6265315;28;20032;-74
2023/05/22 07:08:33;;;;;;;10.63;5.90;;;21.10;59.20;;;;;;6265330;28;20115;-74
2023/05/22 07:11:44;;;;;;;15.18;5.93;;;21.30;58.70;;;;;;6266500;28;20029;-73
2023/05/22 07:14:53;;;;;;;10.55;5.63;;;21.30;58.70;;;;;;6273798;28;20118;-74
2023/05/22 07:18:03;;;;;;;10.10;5.50;;;21.40;58.70;;;;;;6292070;28;20024;-74
2023/05/22 07:21:11;;;;;;;10.68;6.07;;;21.50;58.60;;;;;;6291754;28;20103;-75
2023/05/22 07:24:24;;;;;;;11.00;5.90;;;21.70;58.60;;;;;;6291953;28;20082;-75
2023/05/22 07:27:31;;;;;;;16.25;5.78;;;21.70;58.20;;;;;;6290695;28;20066;-73
2023/05/22 07:30:41;;;;;;;11.47;5.80;;;21.70;58.00;;;;;;6291005;28;20126;-73
2023/05/22 07:33:47;;;;;;;10.55;5.30;;;21.70;57.90;;;;;;6275107;28;20294;-74
2023/05/22 07:36:53;;;;;;;13.48;6.07;;;21.80;57.80;;;;;;6264228;28;20029;-73
2023/05/22 07:40:00;;;;;;;7.65;5.20;;;21.90;57.80;;;;;;6266259;28;20047;-74
2023/05/22 07:43:06;;;;;;;10.18;5.45;;;22.10;57.80;;;;;;6264315;28;20021;-75
2023/05/22 07:46:18;;;;;;;10.02;5.47;;;22.20;57.40;;;;;;6284347;28;20082;-75
2023/05/22 07:49:37;;;;;;;11.93;5.35;;;22.30;57.20;;;;;;6282613;28;20032;-75
2023/05/22 07:52:47;;;;;;;10.63;5.18;;;22.50;57.00;;;;;;6275006;28;20087;-76
2023/05/22 07:55:53;;;;;;;12.07;5.18;;;22.70;56.60;;;;;;6264599;28;20036;-73
2023/05/22 07:58:57;;;;;;;8.63;4.75;;;22.90;56.00;;;;;;6264858;28;20087;-75
2023/05/22 08:02:02;;;;;;;8.32;5.30;;;23.00;55.50;;;;;;6264722;28;20068;-74
2023/05/22 08:05:09;;;;;;;11.55;5.35;;;23.10;55.20;;;;;;6260387;28;20024;-75
2023/05/22 08:08:21;;;;;;;10.75;5.47;;;23.30;55.00;;;;;;6289232;28;20476;-74
2023/05/22 08:11:27;;;;;;;8.20;5.47;;;23.40;54.40;;;;;;6290826;28;20095;-73
2023/05/22 08:14:33;;;;;;;8.25;5.85;;;23.50;54.30;;;;;;6288954;28;20016;-74
2023/05/22 08:17:43;;;;;;;14.82;5.35;;;23.60;54.00;;;;;;6288681;28;20165;-74
2023/05/22 08:20:52;;;;;;;8.30;4.93;;;23.80;53.80;;;;;;6289314;28;20036;-74
2023/05/22 08:23:56;;;;;;;8.35;5.13;;;23.90;53.30;;;;;;6272371;28;20031;-74
2023/05/22 08:27:02;;;;;;;8.95;5.00;;;24.00;52.80;;;;;;6272599;28;20028;-74
2023/05/22 08:30:11;;;;;;;9.65;5.03;;;24.00;52.20;;;;;;6288642;28;20070;-73
2023/05/22 08:33:21;;;;;;;14.25;4.80;;;24.10;52.40;;;;;;6288621;28;20041;-73
2023/05/22 08:36:30;;;;;;;7.13;4.32;;;24.20;52.40;;;;;;6289344;28;20025;-74
2023/05/22 08:39:36;;;;;;;9.55;5.68;;;24.30;52.10;;;;;;6289059;28;20051;-74
2023/05/22 08:42:43;;;;;;;7.32;4.95;;;24.50;51.80;;;;;;6290448;28;20036;-74
2023/05/22 08:45:56;;;;;;;;;;;24.50;51.50;;;;;;6290223;28;20036;-74
2023/05/22 08:49:05;;;;;;;9.82;4.88;;;24.70;51.40;;;;;;6289569;28;20408;-77
2023/05/22 08:52:26;;;;;;;8.32;5.30;;;24.70;50.90;;;;;;6290111;28;20388;-75
2023/05/22 08:55:31;;;;;;;12.52;5.78;;;24.80;50.90;;;;;;6283419;28;20154;-74
2023/05/22 08:58:42;;;;;;;12.35;5.32;;;24.90;50.70;;;;;;6265263;28;20028;-75
2023/05/22 09:01:51;;;;;;;;;;;25.00;50.50;;;;;;6266215;28;20021;-74
2023/05/22 09:05:00;;;;;;;8.18;4.85;;;25.10;50.30;;;;;;6265386;28;20012;-73
2023/05/22 09:08:10;;;;;;;9.50;4.80;;;25.20;49.90;;;;;;6264270;28;20522;-77
2023/05/22 09:11:16;;;;;;;10.70;5.25;;;25.20;49.60;;;;;;6268404;28;20067;-75
2023/05/22 09:14:25;;;;;;;9.60;5.05;;;25.20;49.30;;;;;;6269811;28;20029;-76
2023/05/22 09:17:31;;;;;;;9.45;5.35;;;25.30;49.10;;;;;;6269455;28;20040;-77
2023/05/22 09:20:46;;;;;;;9.55;4.32;;;25.20;48.80;;;;;;6268099;28;20049;-76
2023/05/22 09:23:52;;;;;;;8.77;4.65;;;25.30;48.90;;;;;;6268765;28;20106;-76
2023/05/22 09:27:05;;;;;;;7.57;4.60;;;25.40;48.90;;;;;;6267874;28;20041;-75
2023/05/22 09:30:11;;;;;;;8.45;5.40;;;25.40;48.60;;;;;;6268854;28;20032;-75
2023/05/22 09:33:21;;;;;;;9.02;4.10;;;25.40;48.60;;;;;;6274749;28;20029;-75
2023/05/22 09:36:35;;;;;;;5.50;4.10;;;25.40;48.70;;;;;;6294237;28;20054;-75
2023/05/22 09:39:50;;;;;;;9.00;5.47;;;25.50;48.50;;;;;;6268683;28;20113;-74
2023/05/22 09:43:00;;;;;;;10.45;4.60;;;25.50;48.10;;;;;;6269154;28;20084;-76
2023/05/22 09:46:09;;;;;;;9.35;5.15;;;25.60;47.70;;;;;;6268503;28;20041;-76
2023/05/22 09:49:19;;;;;;;14.35;4.57;;;25.60;47.30;;;;;;6267288;28;20025;-73
2023/05/22 09:52:27;;;;;;;;;;;25.50;47.00;;;;;;6268109;28;20025;-74
2023/05/22 09:55:35;;;;;;;7.28;4.60;;;25.70;46.50;;;;;;6269056;28;19909;-74
2023/05/22 09:58:46;;;;;;;5.28;4.05;;;25.70;46.20;;;;;;6250688;28;20037;-75
2023/05/22 10:01:53;;;;;;;5.47;4.15;;;25.80;45.90;;;;;;6268845;28;20496;-74
2023/05/22 10:05:02;;;;;;;5.55;4.20;;;26.00;45.70;;;;;;6271780;28;20032;-74
2023/05/22 10:08:20;;;;;;;11.45;4.55;;;26.10;45.50;;;;;;6292505;28;20025;-74
2023/05/22 10:11:30;;;;;;;6.47;4.78;;;26.10;45.20;;;;;;6291645;28;20024;-72
2023/05/22 10:14:37;;;;;;;8.35;4.50;;;26.10;45.00;;;;;;6291883;28;20114;-75
2023/05/22 10:17:44;;;;;;;6.55;4.43;;;26.20;44.90;;;;;;6291810;28;20085;-73
2023/05/22 10:20:50;;;;;;;15.88;4.88;;;26.40;45.20;;;;;;6291040;28;20028;-75
2023/05/22 10:23:55;;;;;;;8.15;4.60;;;26.40;45.20;;;;;;6291851;28;20138;-75
2023/05/22 10:27:03;;;;;;;11.57;4.43;;;26.50;45.20;;;;;;6290381;28;20035;-76
2023/05/22 10:30:25;;;;;;;7.20;5.35;;;26.50;45.30;;;;;;6291298;28;20095;-74
2023/05/22 10:33:55;;;;;;;7.80;5.53;;;26.60;45.40;;;;;;6292027;28;20037;-75
2023/05/22 10:37:11;;;;;;;7.85;4.97;;;26.70;45.50;;;;;;6293621;28;20028;-73
2023/05/22 10:40:30;;;;;;;8.48;5.07;;;26.70;46.20;;;;;;6294919;28;20127;-74
2023/05/22 10:43:45;;;;;;;7.50;4.40;;;26.80;45.80;;;;;;6277941;28;20039;-74
2023/05/22 10:46:51;;;;;;;7.05;4.78;;;26.80;45.60;;;;;;6293160;28;20029;-74
2023/05/22 10:50:15;;;;;;;13.45;5.18;;;26.80;45.60;;;;;;6291218;28;20017;-75
2023/05/22 10:53:31;;;;;;;7.50;4.80;;;26.90;45.60;;;;;;6291796;28;20111;-75
2023/05/22 10:56:39;;;;;;;7.22;5.10;;;27.00;45.50;;;;;;6279087;28;20068;-75
2023/05/22 10:59:48;;;;;;;9.25;5.78;;;27.40;45.10;;;;;;6266863;28;20044;-74
2023/05/22 11:03:05;;;;;;;11.98;4.80;;;28.20;43.80;;;;;;6266348;28;20032;-74
2023/05/22 11:06:48;;;;;;;5.90;4.97;;;29.00;42.70;;;;;;6267293;28;20040;-74
2023/05/22 11:10:05;;;;;;;7.30;5.03;;;29.80;41.70;;;;;;6267061;28;20025;-74
2023/05/22 11:13:14;;;;;;;9.10;5.20;;;30.50;40.30;;;;;;6267165;28;20144;-76
2023/05/22 11:16:21;;;;;;;24.50;5.65;;;31.00;39.20;;;;;;6266881;28;20112;-77
2023/05/22 11:19:31;;;;;;;7.13;4.95;;;31.40;38.50;;;;;;6265770;28;20144;-75
2023/05/22 11:22:44;;;;;;;8.35;5.43;;;31.70;37.90;;;;;;6265451;28;20031;-74
2023/05/22 11:25:48;;;;;;;7.35;4.93;;;32.00;37.50;;;;;;6264991;28;20037;-76
2023/05/22 11:28:56;;;;;;;6.43;4.75;;;32.30;36.90;;;;;;6265343;28;20036;-75
2023/05/22 11:32:09;;;;;;;6.65;4.65;;;32.60;36.60;;;;;;6267357;28;20097;-76
2023/05/22 11:35:20;;;;;;;8.95;5.07;;;32.90;36.10;;;;;;6291369;28;20052;-78
2023/05/22 11:38:28;;;;;;;8.73;5.28;;;33.10;35.60;;;;;;6289520;28;20114;-76
2023/05/22 11:41:33;;;;;;;;;;;33.20;35.30;;;;;;6291255;28;20024;-74
2023/05/22 11:44:42;;;;;;;8.05;5.30;;;33.30;35.20;;;;;;6289567;28;20003;-75
2023/05/22 11:47:49;;;;;;;8.30;4.53;;;33.30;34.80;;;;;;6289057;28;20028;-75
2023/05/22 11:50:58;;;;;;;13.98;4.57;;;33.40;35.00;;;;;;6288751;28;20099;-74
2023/05/22 11:54:06;;;;;;;8.50;4.82;;;33.50;34.70;;;;;;6290084;28;20031;-75
2023/05/22 11:57:16;;;;;;;7.68;4.82;;;33.50;34.30;;;;;;6290534;28;20050;-75
2023/05/22 12:00:28;;;;;;;8.82;5.35;;;33.40;34.50;;;;;;6290832;28;20032;-75
2023/05/22 12:03:36;;;;;;;6.70;4.93;;;33.50;34.30;;;;;;6289758;28;20037;-75
2023/05/22 12:06:45;;;;;;;9.38;4.65;;;33.50;34.30;;;;;;6290255;28;20187;-76
2023/05/22 12:10:03;;;;;;;8.65;4.65;;;33.70;33.90;;;;;;6288621;28;20033;-76
2023/05/22 12:13:09;;;;;;;8.35;4.78;;;33.70;33.50;;;;;;6289234;28;20035;-76
2023/05/22 12:16:24;;;;;;;6.15;4.07;;;33.80;33.20;;;;;;6290578;28;20091;-75
2023/05/22 12:19:31;;;;;;;6.70;4.80;;;34.10;33.00;;;;;;6288639;28;20032;-76
2023/05/22 12:22:42;;;;;;;7.13;4.70;;;34.00;32.50;;;;;;6291193;28;20108;-77
2023/05/22 12:25:56;;;;;;;5.00;3.95;;;33.90;32.70;;;;;;6290246;28;20024;-74
2023/05/22 12:29:06;;;;;;;6.07;4.20;;;34.10;32.30;;;;;;6290805;28;20111;-75
2023/05/22 12:32:16;;;;;;;6.28;4.63;;;34.00;32.20;;;;;;6288721;28;20088;-78
2023/05/22 12:35:24;;;;;;;7.90;4.68;;;33.60;32.70;;;;;;6289364;28;20028;-75
2023/05/22 12:38:32;;;;;;;6.18;4.57;;;33.20;33.40;;;;;;6290671;28;20114;-75
2023/05/22 12:41:42;;;;;;;5.85;4.40;;;32.80;33.80;;;;;;6290616;28;20028;-75
2023/05/22 12:44:50;;;;;;;6.40;4.63;;;32.50;34.30;;;;;;6278469;28;20048;-76
2023/05/22 12:47:56;;;;;;;5.63;4.40;;;32.10;34.80;;;;;;6295703;28;20028;-75
2023/05/22 12:51:05;;;;;;;6.40;4.70;;;31.80;35.40;;;;;;6293917;28;20052;-74
2023/05/22 12:54:15;;;;;;;6.25;4.10;;;32.00;35.40;;;;;;6294598;28;20078;-75
2023/05/22 12:57:26;;;;;;;6.05;4.50;;;32.90;34.30;;;;;;6293326;28;20028;-76
2023/05/22 13:00:32;;;;;;;6.10;4.10;;;33.90;32.90;;;;;;6293931;28;20036;-75
2023/05/22 13:03:39;;;;;;;13.73;4.47;;;34.80;31.80;;;;;;6293559;28;20036;-76
2023/05/22 13:06:44;;;;;;;10.25;4.85;;;35.50;30.80;;;;;;6293588;28;20075;-75
2023/05/22 13:09:59;;;;;;;12.32;4.30;;;35.80;30.00;;;;;;6293921;28;20029;-75
2023/05/22 13:13:09;;;;;;;14.00;4.88;;;36.10;29.80;;;;;;6293314;28;20111;-74
2023/05/22 13:16:21;;;;;;;7.00;4.47;;;36.20;29.40;;;;;;6293293;28;20051;-76
2023/05/22 13:19:28;;;;;;;6.13;4.68;;;35.70;29.70;;;;;;6293536;28;20071;-75
2023/05/22 13:22:32;;;;;;;6.75;4.13;;;35.80;29.60;;;;;;6294876;28;20382;-76
2023/05/22 13:25:44;;;;;;;7.88;5.32;;;36.70;28.90;;;;;;6294937;28;20036;-73
2023/05/22 13:28:59;;;;;;;6.28;4.75;;;37.60;27.80;;;;;;6294825;28;20159;-75
2023/05/22 13:32:07;;;;;;;7.90;4.68;;;38.10;27.10;;;;;;6294277;28;20131;-77
2023/05/22 13:35:18;;;;;;;8.52;4.57;;;38.40;26.70;;;;;;6293668;28;20067;-76
2023/05/22 13:38:27;;;;;;;6.47;4.15;;;39.10;26.40;;;;;;6294827;28;20049;-74
2023/05/22 13:41:33;;;;;;;11.70;4.70;;;39.40;25.60;;;;;;6292960;28;20087;-75
2023/05/22 13:44:41;;;;;;;5.10;4.25;;;39.60;25.40;;;;;;6293598;28;20060;-74
2023/05/22 13:47:48;;;;;;;8.05;4.45;;;40.10;25.00;;;;;;6294506;28;20070;-75
2023/05/22 13:50:56;;;;;;;7.63;5.00;;;40.80;24.50;;;;;;6294854;28;20040;-75
2023/05/22 13:54:06;;;;;;;10.40;4.53;;;41.20;24.00;;;;;;6294785;28;20030;-73
2023/05/22 13:57:16;;;;;;;4.75;3.88;;;41.40;23.90;;;;;;6293174;28;20111;-74
2023/05/22 14:00:24;;;;;;;5.15;4.65;;;41.50;23.50;;;;;;6295737;28;20028;-73
2023/05/22 14:03:31;;;;;;;7.75;4.15;;;41.30;23.40;;;;;;6298972;28;20085;-74
2023/05/22 14:06:43;;;;;;;6.10;4.25;;;41.30;23.30;;;;;;6302074;28;20063;-76
2023/05/22 14:09:48;;;;;;;7.28;4.78;;;41.30;23.20;;;;;;6294994;28;20086;-76
2023/05/22 14:13:07;;;;;;;6.70;3.63;;;41.30;23.50;;;;;;6293141;28;20035;-75
2023/05/22 14:16:20;;;;;;;8.48;4.75;;;41.50;23.30;;;;;;6293492;28;20115;-75
2023/05/22 14:19:28;;;;;;;7.00;4.65;;;41.70;23.40;;;;;;6278748;28;20087;-75
2023/05/22 14:22:35;;;;;;;4.43;4.00;;;41.80;23.20;;;;;;6267726;28;20044;-77
2023/05/22 14:25:45;;;;;;;7.73;4.07;;;41.90;23.10;;;;;;6250824;28;20135;-77
2023/05/22 14:28:56;;;;;;;6.50;4.72;;;42.10;22.80;;;;;;6267329;28;20070;-77
2023/05/22 14:32:06;;;;;;;7.13;4.82;;;42.00;22.70;;;;;;6267507;28;20400;-76
2023/05/22 14:35:17;;;;;;;7.47;4.70;;;40.80;23.40;;;;;;6266429;28;20112;-73
2023/05/22 14:38:33;;;;;;;7.05;4.72;;;39.70;24.30;;;;;;6268472;28;20032;-76
2023/05/22 14:41:43;;;;;;;9.48;5.03;;;38.50;25.30;;;;;;6268277;28;20123;-76
2023/05/22 14:44:48;;;;;;;7.22;4.25;;;37.30;26.30;;;;;;6267965;28;20128;-75
2023/05/22 14:47:56;;;;;;;8.13;4.28;;;36.70;27.00;;;;;;6267887;28;20051;-75
2023/05/22 14:51:06;;;;;;;13.25;4.78;;;36.00;27.50;;;;;;6268803;28;20036;-76
2023/05/22 14:54:19;;;;;;;5.75;4.43;;;35.00;28.40;;;;;;6291733;28;20028;-75
2023/05/22 14:57:31;;;;;;;10.63;4.28;;;34.30;29.30;;;;;;6290518;28;20035;-77
2023/05/22 15:00:42;;;;;;;6.18;4.00;;;33.50;30.00;;;;;;6292210;28;20033;-75
2023/05/22 15:03:51;;;;;;;5.30;3.83;;;33.10;30.80;;;;;;6290766;28;20106;-75
2023/05/22 15:07:03;;;;;;;5.40;3.70;;;32.90;31.40;;;;;;6291058;28;20069;-75
2023/05/22 15:10:14;;;;;;;10.10;4.20;;;32.50;32.00;;;;;;6291994;28;20028;-75
2023/05/22 15:13:24;;;;;;;6.38;4.03;;;32.20;32.50;;;;;;6290325;28;20025;-75
2023/05/22 15:16:32;;;;;;;8.32;4.28;;;32.20;32.90;;;;;;6289953;28;20061;-77
2023/05/22 15:19:42;;;;;;;7.95;3.95;;;33.00;32.30;;;;;;6289989;28;20044;-76
2023/05/22 15:22:48;;;;;;;7.10;3.65;;;34.10;30.70;;;;;;6273765;28;20440;-75
2023/05/22 15:25:57;;;;;;;9.07;3.15;;;35.00;29.60;;;;;;6289908;28;20032;-75
2023/05/22 15:29:06;;;;;;;5.88;3.45;;;35.60;28.80;;;;;;6290106;28;20036;-75
2023/05/22 15:32:15;;;;;;;12.50;3.70;;;36.10;28.30;;;;;;6270806;28;20033;-75
2023/05/22 15:35:23;;;;;;;6.35;3.35;;;36.50;27.80;;;;;;6264864;28;20025;-75
2023/05/22 15:38:31;;;;;;;5.82;2.97;;;36.90;27.50;;;;;;6266953;28;20079;-75
2023/05/22 15:41:43;;;;;;;7.03;3.28;;;37.10;26.90;;;;;;6266244;28;20032;-75
2023/05/22 15:44:48;;;;;;;5.72;3.10;;;37.10;26.80;;;;;;6264777;28;20044;-73
2023/05/22 15:47:58;;;;;;;3.40;2.65;;;37.10;26.50;;;;;;6265809;28;20114;-75
2023/05/22 15:51:08;;;;;;;4.95;2.80;;;36.80;26.80;;;;;;6265110;28;20048;-77
2023/05/22 15:54:15;;;;;;;4.18;2.80;;;36.40;27.20;;;;;;6264541;28;20103;-76
2023/05/22 15:57:28;;;;;;;4.18;2.95;;;35.70;27.90;;;;;;6263920;28;20037;-75
2023/05/22 16:00:39;;;;;;;4.90;2.97;;;35.20;28.20;;;;;;6247858;28;20032;-76
2023/05/22 16:03:46;;;;;;;4.82;2.85;;;34.40;29.10;;;;;;6263769;28;20061;-75
2023/05/22 16:06:58;;;;;;;6.32;2.80;;;34.70;29.00;;;;;;6270901;28;20056;-76
2023/05/22 16:10:09;;;;;;;6.28;2.55;;;35.20;28.30;;;;;;6289665;28;20380;-77
2023/05/22 16:13:23;;;;;;;5.60;3.05;;;35.60;27.80;;;;;;6291525;28;20059;-75
2023/05/22 16:16:30;;;;;;;11.55;4.43;;;35.70;28.10;;;;;;6292121;28;20028;-74
2023/05/22 16:19:36;;;;;;;12.95;3.95;;;34.40;30.70;;;;;;6296414;28;20170;-76
2023/05/22 16:22:46;;;;;;;10.25;3.70;;;31.90;36.30;;;;;;6290676;28;20028;-76
2023/05/22 16:25:56;;;;;;;11.32;4.55;;;29.10;41.50;;;;;;6289501;28;20101;-76